Dinant, Belgium
Current Conditions -  °F | °C
As of 7:55 AM on Friday 19 Dec 2014 (Local Time) from EBFS Reporting Station
Light Rain Light Rain  
Wind Chill: 41°   Ceiling: 1000
Heat Index: 48°   Visibility: 4mi
Dew Point: 46°   Wind: 21mph
Humidity: 93%   Direction: 220°SW
Pressure: 29.94"   Gusts: NA
Location:  50.26°N, 4.91°E
Report Text: EBFS 190655Z 22018KT 7000 -RADZ FEW006 BKN010 BKN014 09/08 Q1014 GRN GRN TEMPO YLO
Loading
Personal Weather Stations






























Interactive Weather Map New forecast layout! Learn more

10-Day Weather Forecast

Advertisements
Track Severe Weather on mobile